sensor_id;sensor_type;location;lat;lon;timestamp;P1;durP1;ratioP1;P2;durP2;ratioP2
50733;SDS011;36701;51.798;19.474;2023-06-26T02:01:36;6.65;;;5.15;;
50733;SDS011;36701;51.798;19.474;2023-06-26T02:04:03;8.15;;;5.40;;
50733;SDS011;36701;51.798;19.474;2023-06-26T02:06:30;6.95;;;4.80;;
50733;SDS011;36701;51.798;19.474;2023-06-26T02:08:59;6.10;;;5.30;;
50733;SDS011;36701;51.798;19.474;2023-06-26T02:11:25;11.82;;;5.62;;
50733;SDS011;36701;51.798;19.474;2023-06-26T02:13:52;8.10;;;4.37;;
50733;SDS011;36701;51.798;19.474;2023-06-26T02:16:18;12.52;;;6.15;;
50733;SDS011;36701;51.798;19.474;2023-06-26T02:18:44;7.70;;;5.70;;
50733;SDS011;36701;51.798;19.474;2023-06-26T02:21:10;7.72;;;5.30;;
50733;SDS011;36701;51.798;19.474;2023-06-26T02:23:36;8.10;;;5.40;;
50733;SDS011;36701;51.798;19.474;2023-06-26T02:26:04;7.10;;;5.75;;
50733;SDS011;36701;51.798;19.474;2023-06-26T02:28:30;6.65;;;4.90;;
50733;SDS011;36701;51.798;19.474;2023-06-26T02:30:56;7.70;;;5.30;;
50733;SDS011;36701;51.798;19.474;2023-06-26T02:33:24;11.07;;;5.20;;
50733;SDS011;36701;51.798;19.474;2023-06-26T02:35:50;5.68;;;4.95;;
50733;SDS011;36701;51.798;19.474;2023-06-26T02:38:16;7.62;;;5.43;;
50733;SDS011;36701;51.798;19.474;2023-06-26T02:40:43;8.48;;;5.28;;
50733;SDS011;36701;51.798;19.474;2023-06-26T02:43:09;10.70;;;4.70;;
50733;SDS011;36701;51.798;19.474;2023-06-26T02:45:35;7.30;;;4.97;;
50733;SDS011;36701;51.798;19.474;2023-06-26T02:48:02;11.52;;;5.45;;
50733;SDS011;36701;51.798;19.474;2023-06-26T02:50:29;7.85;;;5.87;;
50733;SDS011;36701;51.798;19.474;2023-06-26T02:52:57;7.37;;;5.40;;
50733;SDS011;36701;51.798;19.474;2023-06-26T02:55:23;7.60;;;5.28;;
50733;SDS011;36701;51.798;19.474;2023-06-26T02:57:51;6.97;;;5.37;;
50733;SDS011;36701;51.798;19.474;2023-06-26T03:00:17;11.02;;;6.32;;
50733;SDS011;36701;51.798;19.474;2023-06-26T03:02:44;9.98;;;5.53;;
50733;SDS011;36701;51.798;19.474;2023-06-26T03:05:11;8.70;;;5.07;;
50733;SDS011;36701;51.798;19.474;2023-06-26T03:07:39;10.23;;;5.22;;
50733;SDS011;36701;51.798;19.474;2023-06-26T03:10:06;8.98;;;5.53;;
50733;SDS011;36701;51.798;19.474;2023-06-26T03:12:32;9.57;;;5.47;;
50733;SDS011;36701;51.798;19.474;2023-06-26T03:14:58;8.32;;;6.22;;
50733;SDS011;36701;51.798;19.474;2023-06-26T03:17:24;8.02;;;5.87;;
50733;SDS011;36701;51.798;19.474;2023-06-26T03:19:53;7.82;;;5.28;;
50733;SDS011;36701;51.798;19.474;2023-06-26T03:22:19;10.13;;;5.95;;
50733;SDS011;36701;51.798;19.474;2023-06-26T03:24:46;11.38;;;5.80;;
50733;SDS011;36701;51.798;19.474;2023-06-26T03:27:12;13.23;;;5.70;;
50733;SDS011;36701;51.798;19.474;2023-06-26T03:29:38;11.60;;;6.25;;
50733;SDS011;36701;51.798;19.474;2023-06-26T03:32:05;9.77;;;6.80;;
50733;SDS011;36701;51.798;19.474;2023-06-26T03:34:32;8.95;;;6.05;;
50733;SDS011;36701;51.798;19.474;2023-06-26T03:36:59;9.07;;;6.05;;
50733;SDS011;36701;51.798;19.474;2023-06-26T03:39:25;7.65;;;5.87;;
50733;SDS011;36701;51.798;19.474;2023-06-26T03:41:51;11.05;;;6.07;;
50733;SDS011;36701;51.798;19.474;2023-06-26T03:44:19;15.63;;;6.95;;
50733;SDS011;36701;51.798;19.474;2023-06-26T03:46:46;11.32;;;5.90;;
50733;SDS011;36701;51.798;19.474;2023-06-26T03:49:12;13.05;;;6.10;;
50733;SDS011;36701;51.798;19.474;2023-06-26T03:51:39;11.18;;;6.00;;
50733;SDS011;36701;51.798;19.474;2023-06-26T03:54:05;9.25;;;6.60;;
50733;SDS011;36701;51.798;19.474;2023-06-26T03:56:31;9.60;;;6.37;;
50733;SDS011;36701;51.798;19.474;2023-06-26T03:58:57;9.65;;;5.55;;
50733;SDS011;36701;51.798;19.474;2023-06-26T04:01:26;9.52;;;7.07;;
50733;SDS011;36701;51.798;19.474;2023-06-26T04:03:52;11.95;;;6.47;;
50733;SDS011;36701;51.798;19.474;2023-06-26T04:06:18;11.82;;;6.75;;
50733;SDS011;36701;51.798;19.474;2023-06-26T04:08:44;11.40;;;5.97;;
50733;SDS011;36701;51.798;19.474;2023-06-26T04:11:17;15.25;;;7.18;;
50733;SDS011;36701;51.798;19.474;2023-06-26T04:13:43;10.07;;;6.55;;
50733;SDS011;36701;51.798;19.474;2023-06-26T04:16:10;11.38;;;7.28;;
50733;SDS011;36701;51.798;19.474;2023-06-26T04:18:37;16.33;;;6.00;;
50733;SDS011;36701;51.798;19.474;2023-06-26T04:21:10;18.80;;;7.30;;
50733;SDS011;36701;51.798;19.474;2023-06-26T04:23:40;9.40;;;6.05;;
50733;SDS011;36701;51.798;19.474;2023-06-26T04:26:06;14.10;;;7.35;;
50733;SDS011;36701;51.798;19.474;2023-06-26T04:28:33;13.32;;;6.93;;
50733;SDS011;36701;51.798;19.474;2023-06-26T04:31:00;12.35;;;6.85;;
50733;SDS011;36701;51.798;19.474;2023-06-26T04:33:26;15.23;;;7.35;;
50733;SDS011;36701;51.798;19.474;2023-06-26T04:35:52;9.75;;;6.65;;
50733;SDS011;36701;51.798;19.474;2023-06-26T04:38:19;11.30;;;6.62;;
50733;SDS011;36701;51.798;19.474;2023-06-26T04:40:46;12.25;;;7.35;;
50733;SDS011;36701;51.798;19.474;2023-06-26T04:43:12;15.25;;;7.45;;
50733;SDS011;36701;51.798;19.474;2023-06-26T04:45:38;14.00;;;7.10;;
50733;SDS011;36701;51.798;19.474;2023-06-26T04:48:04;14.65;;;7.35;;
50733;SDS011;36701;51.798;19.474;2023-06-26T04:50:31;8.85;;;6.68;;
50733;SDS011;36701;51.798;19.474;2023-06-26T04:52:59;13.55;;;7.35;;
50733;SDS011;36701;51.798;19.474;2023-06-26T04:55:26;9.88;;;7.12;;
50733;SDS011;36701;51.798;19.474;2023-06-26T04:57:52;13.93;;;6.50;;
50733;SDS011;36701;51.798;19.474;2023-06-26T05:00:18;14.82;;;7.70;;
50733;SDS011;36701;51.798;19.474;2023-06-26T05:02:45;12.30;;;5.70;;
50733;SDS011;36701;51.798;19.474;2023-06-26T05:05:11;10.27;;;6.37;;
50733;SDS011;36701;51.798;19.474;2023-06-26T05:07:38;9.77;;;6.68;;
50733;SDS011;36701;51.798;19.474;2023-06-26T05:10:04;13.60;;;7.60;;
50733;SDS011;36701;51.798;19.474;2023-06-26T05:12:30;11.27;;;6.97;;
50733;SDS011;36701;51.798;19.474;2023-06-26T05:14:57;9.95;;;6.25;;
50733;SDS011;36701;51.798;19.474;2023-06-26T05:17:22;10.07;;;6.00;;
50733;SDS011;36701;51.798;19.474;2023-06-26T05:19:49;9.00;;;5.75;;
50733;SDS011;36701;51.798;19.474;2023-06-26T05:22:15;7.57;;;5.85;;
50733;SDS011;36701;51.798;19.474;2023-06-26T05:24:42;13.32;;;6.43;;
50733;SDS011;36701;51.798;19.474;2023-06-26T05:27:12;8.90;;;5.55;;
50733;SDS011;36701;51.798;19.474;2023-06-26T05:29:45;7.10;;;5.35;;
50733;SDS011;36701;51.798;19.474;2023-06-26T05:32:12;14.65;;;6.40;;
50733;SDS011;36701;51.798;19.474;2023-06-26T05:34:40;8.73;;;6.20;;
50733;SDS011;36701;51.798;19.474;2023-06-26T05:37:07;10.27;;;6.18;;
50733;SDS011;36701;51.798;19.474;2023-06-26T05:39:34;11.02;;;6.90;;
50733;SDS011;36701;51.798;19.474;2023-06-26T05:42:00;9.40;;;6.00;;
50733;SDS011;36701;51.798;19.474;2023-06-26T05:44:27;6.60;;;5.55;;
50733;SDS011;36701;51.798;19.474;2023-06-26T05:46:52;8.65;;;5.03;;
50733;SDS011;36701;51.798;19.474;2023-06-26T05:49:19;8.30;;;5.47;;
50733;SDS011;36701;51.798;19.474;2023-06-26T05:51:45;7.70;;;5.80;;
50733;SDS011;36701;51.798;19.474;2023-06-26T05:54:11;11.88;;;6.43;;
50733;SDS011;36701;51.798;19.474;2023-06-26T05:56:38;15.90;;;5.65;;
50733;SDS011;36701;51.798;19.474;2023-06-26T05:59:05;11.70;;;6.80;;
50733;SDS011;36701;51.798;19.474;2023-06-26T06:01:31;15.60;;;7.05;;
50733;SDS011;36701;51.798;19.474;2023-06-26T06:03:59;8.07;;;5.82;;
50733;SDS011;36701;51.798;19.474;2023-06-26T06:06:25;8.10;;;6.68;;
50733;SDS011;36701;51.798;19.474;2023-06-26T06:08:51;6.22;;;4.50;;
50733;SDS011;36701;51.798;19.474;2023-06-26T06:11:18;7.72;;;5.35;;
50733;SDS011;36701;51.798;19.474;2023-06-26T06:13:44;6.40;;;4.75;;
50733;SDS011;36701;51.798;19.474;2023-06-26T06:16:10;8.00;;;4.70;;
50733;SDS011;36701;51.798;19.474;2023-06-26T06:18:36;10.75;;;4.28;;
50733;SDS011;36701;51.798;19.474;2023-06-26T06:21:02;7.85;;;5.07;;
50733;SDS011;36701;51.798;19.474;2023-06-26T06:23:29;9.02;;;4.50;;
50733;SDS011;36701;51.798;19.474;2023-06-26T06:25:55;7.90;;;4.18;;
50733;SDS011;36701;51.798;19.474;2023-06-26T06:28:21;13.90;;;3.95;;
50733;SDS011;36701;51.798;19.474;2023-06-26T06:30:47;5.55;;;3.62;;
50733;SDS011;36701;51.798;19.474;2023-06-26T06:33:14;8.73;;;4.47;;
50733;SDS011;36701;51.798;19.474;2023-06-26T06:35:40;19.60;;;4.95;;
50733;SDS011;36701;51.798;19.474;2023-06-26T06:38:06;5.82;;;4.80;;
50733;SDS011;36701;51.798;19.474;2023-06-26T06:40:32;8.70;;;4.32;;
50733;SDS011;36701;51.798;19.474;2023-06-26T06:42:58;8.55;;;3.78;;
50733;SDS011;36701;51.798;19.474;2023-06-26T06:45:24;6.30;;;4.35;;
50733;SDS011;36701;51.798;19.474;2023-06-26T06:47:51;5.68;;;3.60;;
50733;SDS011;36701;51.798;19.474;2023-06-26T06:50:17;8.02;;;3.40;;
50733;SDS011;36701;51.798;19.474;2023-06-26T06:52:43;6.87;;;4.00;;
50733;SDS011;36701;51.798;19.474;2023-06-26T06:55:10;19.50;;;4.28;;
50733;SDS011;36701;51.798;19.474;2023-06-26T06:57:37;7.35;;;4.47;;
50733;SDS011;36701;51.798;19.474;2023-06-26T07:02:31;6.05;;;4.35;;
50733;SDS011;36701;51.798;19.474;2023-06-26T07:05:03;8.63;;;4.53;;
50733;SDS011;36701;51.798;19.474;2023-06-26T07:07:30;13.07;;;3.80;;
50733;SDS011;36701;51.798;19.474;2023-06-26T07:10:00;3.75;;;3.12;;
50733;SDS011;36701;51.798;19.474;2023-06-26T07:12:27;3.72;;;3.40;;
50733;SDS011;36701;51.798;19.474;2023-06-26T07:14:59;4.22;;;3.25;;
50733;SDS011;36701;51.798;19.474;2023-06-26T07:17:26;6.03;;;3.55;;
50733;SDS011;36701;51.798;19.474;2023-06-26T07:19:52;4.85;;;3.72;;
50733;SDS011;36701;51.798;19.474;2023-06-26T07:22:18;8.80;;;3.53;;
50733;SDS011;36701;51.798;19.474;2023-06-26T07:24:46;6.20;;;3.00;;
50733;SDS011;36701;51.798;19.474;2023-06-26T07:27:16;3.10;;;2.83;;
50733;SDS011;36701;51.798;19.474;2023-06-26T07:29:43;6.62;;;3.35;;
50733;SDS011;36701;51.798;19.474;2023-06-26T07:32:10;7.78;;;3.33;;
50733;SDS011;36701;51.798;19.474;2023-06-26T07:34:36;3.90;;;3.60;;
50733;SDS011;36701;51.798;19.474;2023-06-26T07:37:03;3.28;;;2.97;;
50733;SDS011;36701;51.798;19.474;2023-06-26T07:39:29;8.73;;;3.40;;
50733;SDS011;36701;51.798;19.474;2023-06-26T07:41:55;3.50;;;3.20;;
50733;SDS011;36701;51.798;19.474;2023-06-26T07:44:21;4.20;;;3.80;;
50733;SDS011;36701;51.798;19.474;2023-06-26T07:46:48;5.57;;;3.53;;
50733;SDS011;36701;51.798;19.474;2023-06-26T07:49:14;3.83;;;2.83;;
50733;SDS011;36701;51.798;19.474;2023-06-26T07:51:40;3.75;;;3.45;;
50733;SDS011;36701;51.798;19.474;2023-06-26T07:54:06;6.40;;;3.28;;
50733;SDS011;36701;51.798;19.474;2023-06-26T07:56:35;4.87;;;2.95;;
50733;SDS011;36701;51.798;19.474;2023-06-26T07:59:04;5.80;;;2.85;;
50733;SDS011;36701;51.798;19.474;2023-06-26T08:01:31;5.53;;;2.97;;
50733;SDS011;36701;51.798;19.474;2023-06-26T08:03:57;6.20;;;3.95;;
50733;SDS011;36701;51.798;19.474;2023-06-26T08:06:23;3.00;;;2.78;;
50733;SDS011;36701;51.798;19.474;2023-06-26T08:08:49;5.35;;;3.10;;
50733;SDS011;36701;51.798;19.474;2023-06-26T08:11:15;2.97;;;2.67;;
50733;SDS011;36701;51.798;19.474;2023-06-26T08:13:41;4.75;;;2.45;;
50733;SDS011;36701;51.798;19.474;2023-06-26T08:16:08;2.37;;;2.25;;
50733;SDS011;36701;51.798;19.474;2023-06-26T08:18:34;2.55;;;2.33;;
50733;SDS011;36701;51.798;19.474;2023-06-26T08:21:00;3.87;;;2.80;;
50733;SDS011;36701;51.798;19.474;2023-06-26T08:23:26;3.85;;;2.70;;
50733;SDS011;36701;51.798;19.474;2023-06-26T08:25:53;5.15;;;2.75;;
50733;SDS011;36701;51.798;19.474;2023-06-26T08:28:19;5.72;;;2.92;;
50733;SDS011;36701;51.798;19.474;2023-06-26T08:30:45;3.40;;;2.78;;
50733;SDS011;36701;51.798;19.474;2023-06-26T08:33:13;3.55;;;3.03;;
50733;SDS011;36701;51.798;19.474;2023-06-26T08:35:39;3.70;;;2.97;;
50733;SDS011;36701;51.798;19.474;2023-06-26T08:38:05;9.48;;;3.28;;
50733;SDS011;36701;51.798;19.474;2023-06-26T08:40:31;2.80;;;2.60;;
50733;SDS011;36701;51.798;19.474;2023-06-26T08:42:57;3.35;;;3.03;;
50733;SDS011;36701;51.798;19.474;2023-06-26T08:45:23;3.00;;;2.70;;
50733;SDS011;36701;51.798;19.474;2023-06-26T08:47:51;2.28;;;2.17;;
50733;SDS011;36701;51.798;19.474;2023-06-26T08:50:19;2.62;;;2.45;;
50733;SDS011;36701;51.798;19.474;2023-06-26T08:52:47;7.43;;;2.90;;
50733;SDS011;36701;51.798;19.474;2023-06-26T08:55:19;3.05;;;2.60;;
50733;SDS011;36701;51.798;19.474;2023-06-26T08:57:47;4.85;;;2.85;;
50733;SDS011;36701;51.798;19.474;2023-06-26T09:00:19;3.40;;;2.87;;
50733;SDS011;36701;51.798;19.474;2023-06-26T09:02:46;2.65;;;2.45;;
50733;SDS011;36701;51.798;19.474;2023-06-26T09:05:12;3.10;;;2.85;;
50733;SDS011;36701;51.798;19.474;2023-06-26T09:07:38;4.55;;;2.45;;
50733;SDS011;36701;51.798;19.474;2023-06-26T09:10:05;2.62;;;2.35;;
50733;SDS011;36701;51.798;19.474;2023-06-26T09:12:31;3.62;;;3.00;;
50733;SDS011;36701;51.798;19.474;2023-06-26T09:14:57;2.95;;;2.70;;
50733;SDS011;36701;51.798;19.474;2023-06-26T09:17:29;7.82;;;3.22;;
50733;SDS011;36701;51.798;19.474;2023-06-26T09:19:55;2.55;;;2.35;;
50733;SDS011;36701;51.798;19.474;2023-06-26T09:22:21;3.35;;;2.90;;
50733;SDS011;36701;51.798;19.474;2023-06-26T09:24:48;3.30;;;3.00;;
50733;SDS011;36701;51.798;19.474;2023-06-26T09:27:15;2.75;;;2.50;;
50733;SDS011;36701;51.798;19.474;2023-06-26T09:29:41;2.78;;;2.58;;
50733;SDS011;36701;51.798;19.474;2023-06-26T09:32:08;4.45;;;3.00;;
50733;SDS011;36701;51.798;19.474;2023-06-26T09:34:35;6.55;;;2.47;;
50733;SDS011;36701;51.798;19.474;2023-06-26T09:37:01;2.95;;;2.47;;
50733;SDS011;36701;51.798;19.474;2023-06-26T09:39:31;5.65;;;3.15;;
50733;SDS011;36701;51.798;19.474;2023-06-26T09:41:57;7.03;;;2.87;;
50733;SDS011;36701;51.798;19.474;2023-06-26T09:44:25;3.12;;;2.87;;
50733;SDS011;36701;51.798;19.474;2023-06-26T09:46:55;4.50;;;2.42;;
50733;SDS011;36701;51.798;19.474;2023-06-26T09:49:26;3.60;;;2.90;;
50733;SDS011;36701;51.798;19.474;2023-06-26T09:51:53;5.22;;;3.37;;
50733;SDS011;36701;51.798;19.474;2023-06-26T09:54:23;5.15;;;2.62;;
50733;SDS011;36701;51.798;19.474;2023-06-26T09:56:50;8.40;;;2.90;;
50733;SDS011;36701;51.798;19.474;2023-06-26T09:59:16;3.00;;;2.70;;
50733;SDS011;36701;51.798;19.474;2023-06-26T10:01:46;2.92;;;2.70;;
50733;SDS011;36701;51.798;19.474;2023-06-26T10:04:12;3.40;;;2.87;;
50733;SDS011;36701;51.798;19.474;2023-06-26T10:06:47;4.95;;;2.58;;
50733;SDS011;36701;51.798;19.474;2023-06-26T10:09:19;7.43;;;2.97;;
50733;SDS011;36701;51.798;19.474;2023-06-26T10:14:14;3.62;;;2.90;;
50733;SDS011;36701;51.798;19.474;2023-06-26T10:16:41;7.47;;;2.97;;
50733;SDS011;36701;51.798;19.474;2023-06-26T10:19:08;5.37;;;2.92;;
50733;SDS011;36701;51.798;19.474;2023-06-26T10:21:34;4.55;;;2.80;;
50733;SDS011;36701;51.798;19.474;2023-06-26T10:24:01;3.70;;;2.80;;
50733;SDS011;36701;51.798;19.474;2023-06-26T10:26:31;3.30;;;3.00;;
50733;SDS011;36701;51.798;19.474;2023-06-26T10:28:59;5.97;;;3.95;;
50733;SDS011;36701;51.798;19.474;2023-06-26T10:31:26;3.30;;;3.10;;
50733;SDS011;36701;51.798;19.474;2023-06-26T10:33:53;5.78;;;4.12;;
50733;SDS011;36701;51.798;19.474;2023-06-26T10:36:20;4.18;;;3.15;;
50733;SDS011;36701;51.798;19.474;2023-06-26T10:38:54;4.43;;;3.08;;
50733;SDS011;36701;51.798;19.474;2023-06-26T10:41:22;2.85;;;2.65;;
50733;SDS011;36701;51.798;19.474;2023-06-26T10:43:49;3.83;;;3.53;;
50733;SDS011;36701;51.798;19.474;2023-06-26T10:46:15;3.55;;;2.97;;
50733;SDS011;36701;51.798;19.474;2023-06-26T10:48:55;10.98;;;3.60;;
50733;SDS011;36701;51.798;19.474;2023-06-26T10:51:22;4.25;;;2.87;;
50733;SDS011;36701;51.798;19.474;2023-06-26T10:53:55;3.00;;;2.80;;
50733;SDS011;36701;51.798;19.474;2023-06-26T10:56:21;8.73;;;2.83;;
50733;SDS011;36701;51.798;19.474;2023-06-26T10:59:19;2.87;;;2.67;;
50733;SDS011;36701;51.798;19.474;2023-06-26T11:01:46;3.47;;;3.20;;
50733;SDS011;36701;51.798;19.474;2023-06-26T11:04:13;4.87;;;4.22;;
50733;SDS011;36701;51.798;19.474;2023-06-26T11:06:40;8.88;;;3.08;;
50733;SDS011;36701;51.798;19.474;2023-06-26T11:09:08;8.90;;;2.72;;
50733;SDS011;36701;51.798;19.474;2023-06-26T11:14:19;6.90;;;3.17;;
50733;SDS011;36701;51.798;19.474;2023-06-26T11:16:47;2.92;;;2.72;;
50733;SDS011;36701;51.798;19.474;2023-06-26T11:19:18;3.12;;;2.92;;
50733;SDS011;36701;51.798;19.474;2023-06-26T11:21:45;3.28;;;2.90;;
50733;SDS011;36701;51.798;19.474;2023-06-26T11:24:15;3.03;;;2.83;;
50733;SDS011;36701;51.798;19.474;2023-06-26T11:26:43;3.05;;;2.80;;
50733;SDS011;36701;51.798;19.474;2023-06-26T11:29:11;4.95;;;3.60;;
50733;SDS011;36701;51.798;19.474;2023-06-26T11:31:39;9.90;;;3.67;;
50733;SDS011;36701;51.798;19.474;2023-06-26T11:34:08;5.00;;;3.67;;
50733;SDS011;36701;51.798;19.474;2023-06-26T11:36:46;2.92;;;2.80;;
50733;SDS011;36701;51.798;19.474;2023-06-26T11:39:16;6.25;;;3.42;;
50733;SDS011;36701;51.798;19.474;2023-06-26T11:41:47;4.07;;;3.33;;
50733;SDS011;36701;51.798;19.474;2023-06-26T11:44:16;6.55;;;3.62;;
50733;SDS011;36701;51.798;19.474;2023-06-26T11:46:47;6.00;;;3.45;;
50733;SDS011;36701;51.798;19.474;2023-06-26T11:49:17;7.15;;;3.58;;
50733;SDS011;36701;51.798;19.474;2023-06-26T11:51:43;5.35;;;3.40;;
50733;SDS011;36701;51.798;19.474;2023-06-26T11:54:13;6.53;;;3.60;;
50733;SDS011;36701;51.798;19.474;2023-06-26T11:56:42;3.28;;;3.00;;
50733;SDS011;36701;51.798;19.474;2023-06-26T11:59:11;3.45;;;3.15;;
50733;SDS011;36701;51.798;19.474;2023-06-26T12:01:39;3.50;;;3.22;;
50733;SDS011;36701;51.798;19.474;2023-06-26T12:04:09;5.72;;;3.10;;
50733;SDS011;36701;51.798;19.474;2023-06-26T12:06:38;5.25;;;3.50;;
50733;SDS011;36701;51.798;19.474;2023-06-26T12:09:08;7.35;;;3.10;;
50733;SDS011;36701;51.798;19.474;2023-06-26T12:11:42;4.10;;;3.05;;
50733;SDS011;36701;51.798;19.474;2023-06-26T12:14:10;5.50;;;3.22;;
50733;SDS011;36701;51.798;19.474;2023-06-26T12:16:44;5.68;;;3.83;;
50733;SDS011;36701;51.798;19.474;2023-06-26T12:19:12;3.92;;;3.35;;
50733;SDS011;36701;51.798;19.474;2023-06-26T12:24:08;3.65;;;3.30;;
50733;SDS011;36701;51.798;19.474;2023-06-26T12:26:35;5.37;;;3.58;;
50733;SDS011;36701;51.798;19.474;2023-06-26T12:29:07;5.25;;;3.37;;
50733;SDS011;36701;51.798;19.474;2023-06-26T12:31:34;6.85;;;3.50;;
50733;SDS011;36701;51.798;19.474;2023-06-26T12:34:02;3.58;;;3.28;;
50733;SDS011;36701;51.798;19.474;2023-06-26T12:36:43;3.70;;;3.40;;
50733;SDS011;36701;51.798;19.474;2023-06-26T12:39:10;3.53;;;3.22;;
50733;SDS011;36701;51.798;19.474;2023-06-26T12:41:46;4.93;;;3.78;;
50733;SDS011;36701;51.798;19.474;2023-06-26T12:44:16;7.12;;;6.03;;
50733;SDS011;36701;51.798;19.474;2023-06-26T12:46:42;3.62;;;3.33;;
50733;SDS011;36701;51.798;19.474;2023-06-26T12:49:08;3.08;;;2.83;;
50733;SDS011;36701;51.798;19.474;2023-06-26T12:51:37;3.22;;;3.03;;
50733;SDS011;36701;51.798;19.474;2023-06-26T12:54:04;4.78;;;3.60;;
50733;SDS011;36701;51.798;19.474;2023-06-26T12:56:30;3.37;;;3.08;;
50733;SDS011;36701;51.798;19.474;2023-06-26T12:58:56;5.43;;;3.20;;
50733;SDS011;36701;51.798;19.474;2023-06-26T13:01:22;4.43;;;2.92;;
50733;SDS011;36701;51.798;19.474;2023-06-26T13:03:50;6.55;;;3.33;;
50733;SDS011;36701;51.798;19.474;2023-06-26T13:06:19;3.37;;;2.72;;
50733;SDS011;36701;51.798;19.474;2023-06-26T13:08:45;5.12;;;3.50;;
50733;SDS011;36701;51.798;19.474;2023-06-26T13:11:11;4.32;;;3.00;;
50733;SDS011;36701;51.798;19.474;2023-06-26T13:13:37;6.03;;;3.60;;
50733;SDS011;36701;51.798;19.474;2023-06-26T13:16:04;4.00;;;3.70;;
50733;SDS011;36701;51.798;19.474;2023-06-26T13:18:31;3.40;;;3.20;;
50733;SDS011;36701;51.798;19.474;2023-06-26T13:20:56;3.53;;;3.22;;
50733;SDS011;36701;51.798;19.474;2023-06-26T13:23:23;3.40;;;3.10;;
50733;SDS011;36701;51.798;19.474;2023-06-26T13:25:49;3.55;;;3.00;;
50733;SDS011;36701;51.798;19.474;2023-06-26T13:28:16;3.92;;;3.60;;
50733;SDS011;36701;51.798;19.474;2023-06-26T13:30:43;3.50;;;3.20;;
50733;SDS011;36701;51.798;19.474;2023-06-26T13:33:09;4.05;;;3.28;;
50733;SDS011;36701;51.798;19.474;2023-06-26T13:35:36;2.55;;;2.45;;
50733;SDS011;36701;51.798;19.474;2023-06-26T13:38:03;3.40;;;3.17;;
50733;SDS011;36701;51.798;19.474;2023-06-26T13:40:29;2.62;;;2.53;;
50733;SDS011;36701;51.798;19.474;2023-06-26T13:42:55;3.05;;;2.90;;
50733;SDS011;36701;51.798;19.474;2023-06-26T13:45:21;5.57;;;2.92;;
50733;SDS011;36701;51.798;19.474;2023-06-26T13:47:47;3.37;;;2.40;;
50733;SDS011;36701;51.798;19.474;2023-06-26T13:50:13;5.37;;;3.00;;
50733;SDS011;36701;51.798;19.474;2023-06-26T13:52:40;3.08;;;2.83;;
50733;SDS011;36701;51.798;19.474;2023-06-26T13:55:06;4.28;;;2.62;;
50733;SDS011;36701;51.798;19.474;2023-06-26T13:57:32;3.22;;;3.03;;
50733;SDS011;36701;51.798;19.474;2023-06-26T13:59:58;2.97;;;2.78;;
50733;SDS011;36701;51.798;19.474;2023-06-26T14:02:25;3.25;;;2.95;;
50733;SDS011;36701;51.798;19.474;2023-06-26T14:04:52;3.37;;;3.15;;
50733;SDS011;36701;51.798;19.474;2023-06-26T14:07:18;5.15;;;3.22;;
50733;SDS011;36701;51.798;19.474;2023-06-26T14:09:44;2.80;;;2.60;;
50733;SDS011;36701;51.798;19.474;2023-06-26T14:12:11;2.90;;;2.70;;
50733;SDS011;36701;51.798;19.474;2023-06-26T14:14:37;4.75;;;3.75;;
50733;SDS011;36701;51.798;19.474;2023-06-26T14:17:05;4.53;;;2.70;;
50733;SDS011;36701;51.798;19.474;2023-06-26T14:19:34;3.20;;;3.00;;
50733;SDS011;36701;51.798;19.474;2023-06-26T14:22:00;2.45;;;2.30;;
50733;SDS011;36701;51.798;19.474;2023-06-26T14:24:27;3.40;;;3.10;;
50733;SDS011;36701;51.798;19.474;2023-06-26T14:26:53;8.00;;;3.42;;
50733;SDS011;36701;51.798;19.474;2023-06-26T14:29:19;10.32;;;3.10;;
50733;SDS011;36701;51.798;19.474;2023-06-26T14:31:47;9.32;;;3.28;;
50733;SDS011;36701;51.798;19.474;2023-06-26T14:34:15;3.30;;;2.70;;
50733;SDS011;36701;51.798;19.474;2023-06-26T14:36:51;11.68;;;3.20;;
50733;SDS011;36701;51.798;19.474;2023-06-26T14:39:17;3.83;;;2.72;;
50733;SDS011;36701;51.798;19.474;2023-06-26T14:41:44;4.50;;;3.20;;
50733;SDS011;36701;51.798;19.474;2023-06-26T14:44:10;3.42;;;3.12;;
50733;SDS011;36701;51.798;19.474;2023-06-26T14:46:37;2.67;;;2.47;;
50733;SDS011;36701;51.798;19.474;2023-06-26T14:49:03;3.20;;;2.90;;
50733;SDS011;36701;51.798;19.474;2023-06-26T14:51:29;3.17;;;2.97;;
50733;SDS011;36701;51.798;19.474;2023-06-26T14:53:55;3.78;;;2.60;;
50733;SDS011;36701;51.798;19.474;2023-06-26T14:56:22;3.78;;;3.47;;
50733;SDS011;36701;51.798;19.474;2023-06-26T14:58:47;4.43;;;3.03;;
50733;SDS011;36701;51.798;19.474;2023-06-26T15:01:14;3.25;;;3.03;;
50733;SDS011;36701;51.798;19.474;2023-06-26T15:03:48;3.10;;;2.80;;
50733;SDS011;36701;51.798;19.474;2023-06-26T15:06:14;3.15;;;2.92;;
50733;SDS011;36701;51.798;19.474;2023-06-26T15:08:40;6.03;;;2.85;;
50733;SDS011;36701;51.798;19.474;2023-06-26T15:11:07;7.60;;;4.45;;
50733;SDS011;36701;51.798;19.474;2023-06-26T15:13:33;3.42;;;2.75;;
50733;SDS011;36701;51.798;19.474;2023-06-26T15:15:59;3.78;;;3.45;;
50733;SDS011;36701;51.798;19.474;2023-06-26T15:18:25;5.07;;;2.83;;
50733;SDS011;36701;51.798;19.474;2023-06-26T15:20:51;3.75;;;3.42;;
50733;SDS011;36701;51.798;19.474;2023-06-26T15:23:17;6.05;;;3.08;;
50733;SDS011;36701;51.798;19.474;2023-06-26T15:25:44;6.40;;;2.92;;
50733;SDS011;36701;51.798;19.474;2023-06-26T15:28:10;8.07;;;3.17;;
50733;SDS011;36701;51.798;19.474;2023-06-26T15:30:36;3.42;;;3.20;;
50733;SDS011;36701;51.798;19.474;2023-06-26T15:33:02;3.37;;;2.85;;
50733;SDS011;36701;51.798;19.474;2023-06-26T15:35:28;4.40;;;2.80;;
50733;SDS011;36701;51.798;19.474;2023-06-26T15:37:54;6.30;;;3.65;;
50733;SDS011;36701;51.798;19.474;2023-06-26T15:40:20;6.80;;;2.72;;
50733;SDS011;36701;51.798;19.474;2023-06-26T15:42:47;3.75;;;3.40;;
50733;SDS011;36701;51.798;19.474;2023-06-26T15:45:14;7.05;;;4.45;;
50733;SDS011;36701;51.798;19.474;2023-06-26T15:47:41;3.75;;;3.45;;
50733;SDS011;36701;51.798;19.474;2023-06-26T15:50:08;3.33;;;2.70;;
50733;SDS011;36701;51.798;19.474;2023-06-26T15:52:34;6.28;;;3.03;;
50733;SDS011;36701;51.798;19.474;2023-06-26T15:55:00;3.33;;;3.03;;
50733;SDS011;36701;51.798;19.474;2023-06-26T15:57:26;4.65;;;3.33;;
50733;SDS011;36701;51.798;19.474;2023-06-26T15:59:53;3.85;;;3.55;;
50733;SDS011;36701;51.798;19.474;2023-06-26T16:02:18;3.50;;;3.12;;
50733;SDS011;36701;51.798;19.474;2023-06-26T16:04:45;3.55;;;3.20;;
50733;SDS011;36701;51.798;19.474;2023-06-26T16:07:11;19.30;;;3.60;;
50733;SDS011;36701;51.798;19.474;2023-06-26T16:09:37;3.40;;;3.10;;
50733;SDS011;36701;51.798;19.474;2023-06-26T16:12:03;3.12;;;2.90;;
50733;SDS011;36701;51.798;19.474;2023-06-26T16:14:29;6.85;;;3.42;;
50733;SDS011;36701;51.798;19.474;2023-06-26T16:16:55;3.50;;;3.20;;
50733;SDS011;36701;51.798;19.474;2023-06-26T16:19:22;11.32;;;3.50;;
50733;SDS011;36701;51.798;19.474;2023-06-26T16:21:48;4.30;;;2.65;;
50733;SDS011;36701;51.798;19.474;2023-06-26T16:24:14;3.22;;;2.97;;
50733;SDS011;36701;51.798;19.474;2023-06-26T16:26:40;3.12;;;2.87;;
50733;SDS011;36701;51.798;19.474;2023-06-26T16:29:06;3.78;;;3.47;;
50733;SDS011;36701;51.798;19.474;2023-06-26T16:31:32;3.97;;;3.50;;
50733;SDS011;36701;51.798;19.474;2023-06-26T16:33:59;8.13;;;4.05;;
50733;SDS011;36701;51.798;19.474;2023-06-26T16:36:25;5.07;;;3.35;;
50733;SDS011;36701;51.798;19.474;2023-06-26T16:38:52;9.95;;;3.58;;
50733;SDS011;36701;51.798;19.474;2023-06-26T16:41:19;9.27;;;3.55;;
50733;SDS011;36701;51.798;19.474;2023-06-26T16:43:46;4.28;;;3.87;;